Time;durP1;ratioP1;P1;durP2;ratioP2;P2;SDS_P1;SDS_P2;PMS_P1;PMS_P2;Temp;Humidity;BMP_temperature;BMP_pressure;BME280_temperature;BME280_humidity;BME280_pressure;Samples;Min_cycle;Max_cycle;Signal;HPM_P1;HPM_P2
2021/12/03 00:01:28;;;;;;;10.30;4.90;;;;;;;2.08;62.37;96733.34;1712855;82;20918;-57
2021/12/03 00:03:54;;;;;;;16.80;5.37;;;;;;;2.11;62.53;96736.82;1736628;82;21102;-57
2021/12/03 00:06:21;;;;;;;12.68;5.78;;;;;;;2.16;62.96;96742.75;1736314;82;21131;-57
2021/12/03 00:08:47;;;;;;;9.08;4.47;;;;;;;2.16;62.65;96748.90;1712070;82;21080;-57
2021/12/03 00:11:13;;;;;;;13.68;5.08;;;;;;;2.12;59.84;96759.00;1765768;80;20866;-57
2021/12/03 00:13:40;;;;;;;8.90;4.03;;;;;;;2.14;61.56;96762.25;1658530;84;21512;-57
2021/12/03 00:16:06;;;;;;;9.20;3.85;;;;;;;2.15;61.91;96759.85;1713238;82;20985;-57
2021/12/03 00:18:32;;;;;;;12.95;4.58;;;;;;;2.15;60.24;96763.33;1717226;82;21062;-57
2021/12/03 00:21:01;;;;;;;8.33;4.22;;;;;;;2.17;61.50;96769.75;1711986;83;21341;-57
2021/12/03 00:23:27;;;;;;;7.17;3.63;;;;;;;2.12;58.69;96776.37;1730683;82;21006;-57
2021/12/03 00:25:55;;;;;;;11.63;5.03;;;;;;;2.15;61.32;96775.88;1711630;82;21056;-57
2021/12/03 00:28:21;;;;;;;9.68;4.12;;;;;;;2.16;60.29;96776.16;1726326;82;21530;-57
2021/12/03 00:30:47;;;;;;;9.50;5.08;;;;;;;2.16;60.40;96779.63;1736651;82;20881;-57
2021/12/03 00:33:13;;;;;;;13.18;5.17;;;;;;;2.06;59.56;96781.43;1722544;82;21680;-57
2021/12/03 00:35:39;;;;;;;11.60;4.28;;;;;;;2.00;58.33;96788.59;1711970;83;20946;-57
2021/12/03 00:38:05;;;;;;;10.13;4.90;;;;;;;1.95;59.25;96790.67;1730214;82;20956;-57
2021/12/03 00:40:35;;;;;;;12.75;5.22;;;;;;;1.97;59.42;96795.78;1716614;82;21513;-57
2021/12/03 00:43:01;;;;;;;12.13;4.40;;;;;;;1.89;58.66;96801.59;1690713;84;21006;-57
2021/12/03 00:45:29;;;;;;;12.73;3.70;;;;;;;1.82;59.00;96809.80;1736820;82;21348;-57
2021/12/03 00:47:55;;;;;;;10.98;4.65;;;;;;;1.80;59.69;96805.78;1731825;82;21463;-57
2021/12/03 00:50:22;;;;;;;16.67;5.60;;;;;;;1.75;59.81;96803.86;1736673;82;20909;-57
2021/12/03 00:52:48;;;;;;;11.12;5.28;;;;;;;1.72;59.75;96807.58;1729582;82;21034;-57
2021/12/03 00:55:14;;;;;;;8.20;4.40;;;;;;;1.72;60.57;96820.92;1712068;83;21034;-57
2021/12/03 00:57:40;;;;;;;13.78;6.35;;;;;;;1.74;60.79;96827.62;1712162;82;21547;-57
2021/12/03 01:00:13;;;;;;;13.80;6.12;;;;;;;1.72;61.28;96837.75;1712064;83;20888;-57
2021/12/03 01:02:39;;;;;;;14.10;5.87;;;;;;;1.69;61.07;96831.56;1722475;82;21079;-58
2021/12/03 01:05:06;;;;;;;15.32;4.92;;;;;;;1.62;61.30;96833.62;1736737;82;20936;-57
2021/12/03 01:07:32;;;;;;;10.82;4.37;;;;;;;1.62;61.79;96841.62;1736664;82;21661;-57
2021/12/03 01:09:58;;;;;;;10.40;4.87;;;;;;;1.62;61.92;96838.46;1725845;82;21425;-57
2021/12/03 01:12:24;;;;;;;13.93;6.25;;;;;;;1.59;61.97;96844.28;1714099;82;20966;-57
2021/12/03 01:14:50;;;;;;;10.43;5.53;;;;;;;1.53;61.90;96850.62;1736948;82;20893;-57
2021/12/03 01:17:16;;;;;;;10.43;4.50;;;;;;;1.55;62.55;96847.19;1730502;82;21283;-57
2021/12/03 01:19:42;;;;;;;10.65;4.30;;;;;;;1.54;62.42;96848.25;1712398;83;21022;-57
2021/12/03 01:22:08;;;;;;;10.18;4.72;;;;;;;1.52;61.53;96842.86;1712409;82;21878;-57
2021/12/03 01:24:34;;;;;;;13.53;4.58;;;;;;;1.52;61.83;96839.66;1710512;83;20885;-57
2021/12/03 01:27:00;;;;;;;10.08;4.78;;;;;;;1.41;61.47;96839.28;1705657;82;21170;-57
2021/12/03 01:29:26;;;;;;;12.37;5.17;;;;;;;1.43;62.08;96836.35;1711816;82;20848;-57
2021/12/03 01:31:54;;;;;;;7.78;3.92;;;;;;;1.44;62.33;96838.77;1711978;82;20856;-57
2021/12/03 01:34:21;;;;;;;13.65;5.60;;;;;;;1.32;61.41;96843.44;1712201;82;21468;-57
2021/12/03 01:36:47;;;;;;;10.45;5.55;;;;;;;1.29;62.23;96832.75;1713397;82;21040;-57
2021/12/03 01:39:13;;;;;;;9.80;4.75;;;;;;;1.30;62.34;96838.89;1732591;82;20952;-57
2021/12/03 01:41:40;;;;;;;11.68;4.60;;;;;;;1.25;62.38;96848.96;1704869;82;21059;-57
2021/12/03 01:44:08;;;;;;;10.63;5.05;;;;;;;1.27;62.27;96844.70;1731661;82;21502;-57
2021/12/03 01:46:33;;;;;;;10.65;4.42;;;;;;;1.28;62.45;96842.31;1734048;82;21131;-57
2021/12/03 01:49:00;;;;;;;8.40;4.45;;;;;;;1.29;62.90;96859.44;1735807;82;20941;-57
2021/12/03 01:51:26;;;;;;;12.65;4.87;;;;;;;1.30;63.06;96860.24;1736428;82;20981;-57
2021/12/03 01:53:52;;;;;;;8.75;4.12;;;;;;;1.35;63.26;96873.10;1736533;82;21184;-57
2021/12/03 01:56:20;;;;;;;8.98;4.20;;;;;;;1.37;63.22;96876.36;1736512;82;21025;-57
2021/12/03 01:58:47;;;;;;;17.30;4.20;;;;;;;1.39;63.23;96892.92;1736472;82;22119;-57
2021/12/03 02:01:17;;;;;;;9.18;4.28;;;;;;;1.30;61.71;96894.94;1736454;82;21494;-57
2021/12/03 02:03:46;;;;;;;10.48;3.70;;;;;;;1.36;63.05;96892.59;1736542;82;21084;-57
2021/12/03 02:06:12;;;;;;;7.55;3.45;;;;;;;1.37;63.16;96907.58;1736488;82;21036;-57
2021/12/03 02:08:38;;;;;;;11.95;5.80;;;;;;;1.38;63.30;96906.00;1721037;82;21058;-57
2021/12/03 02:11:05;;;;;;;8.73;3.90;;;;;;;1.38;63.58;96914.00;1762226;80;20983;-57
2021/12/03 02:13:32;;;;;;;9.58;3.67;;;;;;;1.39;63.32;96927.63;1672579;84;21033;-57
2021/12/03 02:15:58;;;;;;;9.75;4.10;;;;;;;1.33;62.87;96933.14;1673210;85;21040;-57
2021/12/03 02:18:24;;;;;;;10.68;3.85;;;;;;;1.27;61.93;96939.45;1718683;82;21078;-57
2021/12/03 02:20:54;;;;;;;7.83;3.87;;;;;;;1.23;62.44;96940.48;1712241;82;21536;-57
2021/12/03 02:23:20;;;;;;;8.13;3.95;;;;;;;1.21;63.02;96935.12;1715045;82;21548;-58
2021/12/03 02:25:47;;;;;;;13.80;3.92;;;;;;;1.22;63.45;96951.41;1708150;82;21743;-58
2021/12/03 02:28:14;;;;;;;8.13;4.08;;;;;;;1.22;63.09;96951.41;1719311;82;21088;-58
2021/12/03 02:30:40;;;;;;;8.45;4.17;;;;;;;1.20;63.02;96949.49;1736778;82;21075;-58
2021/12/03 02:33:07;;;;;;;8.20;3.90;;;;;;;1.21;63.32;96959.14;1736679;82;21005;-58
2021/12/03 02:35:33;;;;;;;8.88;3.12;;;;;;;1.17;63.01;96958.00;1736847;82;21608;-58
2021/12/03 02:37:58;;;;;;;8.35;4.33;;;;;;;1.19;63.32;96959.89;1728069;82;21598;-58
2021/12/03 02:40:24;;;;;;;8.53;3.60;;;;;;;1.19;63.11;96961.22;1724957;80;20967;-58
2021/12/03 02:42:51;;;;;;;8.88;3.77;;;;;;;1.21;63.51;96959.95;1734919;82;21346;-58
2021/12/03 02:45:17;;;;;;;12.85;3.80;;;;;;;1.25;63.62;96961.58;1736909;82;21143;-58
2021/12/03 02:50:27;;;;;;;7.92;3.50;;;;;;;1.24;62.94;96964.78;1840763;78;22663;-57
2021/12/03 02:52:54;;;;;;;13.98;5.37;;;;;;;1.10;61.66;96961.64;1797576;79;21027;-56
2021/12/03 02:55:20;;;;;;;10.48;4.87;;;;;;;1.14;62.89;96961.97;1783959;80;21509;-57
2021/12/03 02:57:46;;;;;;;7.53;5.20;;;;;;;1.15;62.49;96963.59;1772482;79;21557;-57
2021/12/03 03:00:16;;;;;;;12.18;4.95;;;;;;;1.19;62.96;96967.89;1783612;80;21041;-57
2021/12/03 03:02:42;;;;;;;8.78;3.98;;;;;;;1.20;63.33;96973.02;1777516;80;22174;-57
2021/12/03 03:05:11;;;;;;;8.00;3.08;;;;;;;1.22;63.52;96972.23;1757394;81;20995;-57
2021/12/03 03:07:37;;;;;;;9.40;3.62;;;;;;;1.26;63.64;96985.88;1765978;80;22066;-57
2021/12/03 03:10:08;;;;;;;9.20;4.22;;;;;;;1.28;63.85;96987.27;1767861;80;21074;-57
2021/12/03 03:12:33;;;;;;;8.50;3.50;;;;;;;1.29;63.51;96988.89;1778914;80;21219;-57
2021/12/03 03:14:59;;;;;;;6.33;3.15;;;;;;;1.30;63.76;96995.84;1757340;81;21804;-57
2021/12/03 03:17:27;;;;;;;5.83;3.47;;;;;;;1.29;63.62;96996.89;1769357;79;21033;-59
2021/12/03 03:19:54;;;;;;;6.33;3.15;;;;;;;1.27;62.99;97007.52;1783750;80;21461;-58
2021/12/03 03:22:20;;;;;;;8.35;3.22;;;;;;;1.19;61.62;97017.27;1750822;80;21068;-59
2021/12/03 03:24:46;;;;;;;7.78;2.98;;;;;;;1.13;62.44;97017.73;1783957;80;21025;-59
2021/12/03 03:27:12;;;;;;;7.10;3.70;;;;;;;1.04;62.42;97026.67;1779145;80;21288;-58
2021/12/03 03:29:38;;;;;;;5.75;2.52;;;;;;;0.92;61.84;97036.59;1741817;82;21633;-59
2021/12/03 03:32:06;;;;;;;6.97;2.70;;;;;;;0.95;62.73;97038.80;1754519;80;21024;-59
2021/12/03 03:34:32;;;;;;;14.87;6.03;;;;;;;0.94;62.59;97033.18;1783551;80;21550;-59
2021/12/03 03:36:58;;;;;;;9.38;4.33;;;;;;;0.94;62.61;97043.02;1783999;80;20893;-58
2021/12/03 03:39:23;;;;;;;7.97;2.60;;;;;;;0.87;62.11;97035.19;1783595;79;21568;-59
2021/12/03 03:41:49;;;;;;;7.10;2.67;;;;;;;0.81;62.66;97032.15;1783676;80;20890;-59
2021/12/03 03:44:16;;;;;;;4.58;2.52;;;;;;;0.73;62.29;97039.20;1783952;80;21573;-58
2021/12/03 03:46:45;;;;;;;7.85;3.95;;;;;;;0.72;62.92;97030.40;1783700;80;22020;-58
2021/12/03 03:49:11;;;;;;;6.05;2.47;;;;;;;0.74;63.41;97030.16;1783544;79;21015;-58
2021/12/03 03:51:37;;;;;;;9.23;3.60;;;;;;;0.78;63.47;97039.31;1780808;80;20912;-59
2021/12/03 03:54:03;;;;;;;5.83;2.77;;;;;;;0.80;63.63;97039.34;1783793;80;21024;-59
2021/12/03 03:56:29;;;;;;;5.92;3.00;;;;;;;0.80;63.68;97039.34;1784211;80;21158;-59
2021/12/03 03:58:55;;;;;;;6.67;2.77;;;;;;;0.81;63.76;97043.63;1751695;80;21020;-59
2021/12/03 04:01:21;;;;;;;9.35;3.27;;;;;;;0.82;63.72;97060.43;1741933;80;20964;-59
2021/12/03 04:03:47;;;;;;;7.67;3.15;;;;;;;0.81;64.00;97062.30;1783077;80;20905;-59
2021/12/03 04:06:15;;;;;;;9.08;3.90;;;;;;;0.78;63.91;97069.98;1783457;80;20838;-59
2021/12/03 04:08:42;;;;;;;16.55;4.87;;;;;;;0.66;63.75;97075.88;1781965;80;21586;-57
2021/12/03 04:11:08;;;;;;;6.45;3.27;;;;;;;0.62;64.07;97087.55;1794667;79;21019;-57
2021/12/03 04:13:34;;;;;;;8.23;3.62;;;;;;;0.60;64.28;97089.66;1783143;79;21071;-57
2021/12/03 04:16:00;;;;;;;5.78;2.55;;;;;;;0.52;64.50;97097.51;1783437;80;21084;-57
2021/12/03 04:18:26;;;;;;;3.95;2.40;;;;;;;0.57;64.68;97098.11;1768839;80;21054;-57
2021/12/03 04:20:51;;;;;;;3.10;1.80;;;;;;;0.60;64.56;97106.98;1756947;81;21539;-57
2021/12/03 04:23:19;;;;;;;5.22;2.67;;;;;;;0.56;64.43;97105.83;1778117;80;21019;-57
2021/12/03 04:25:47;;;;;;;5.20;1.95;;;;;;;0.54;64.45;97106.08;1783078;80;21461;-57
2021/12/03 04:28:14;;;;;;;6.20;3.15;;;;;;;0.49;64.64;97103.30;1774362;80;21008;-57
2021/12/03 04:30:40;;;;;;;4.97;2.80;;;;;;;0.47;65.10;97115.25;1783086;80;21075;-57
2021/12/03 04:33:07;;;;;;;5.30;2.60;;;;;;;0.48;65.18;97104.87;1777252;80;21766;-57
2021/12/03 04:35:34;;;;;;;10.65;3.08;;;;;;;0.53;65.25;97107.65;1783065;80;21157;-57
2021/12/03 04:38:00;;;;;;;5.25;2.58;;;;;;;0.56;65.21;97107.97;1778278;79;21282;-57
2021/12/03 04:40:26;;;;;;;7.15;3.00;;;;;;;0.63;65.16;97113.17;1782994;80;21060;-57
2021/12/03 04:42:52;;;;;;;4.65;2.35;;;;;;;0.61;65.12;97117.12;1783121;79;21075;-56
2021/12/03 04:45:21;;;;;;;6.80;3.47;;;;;;;0.57;65.28;97128.77;1783282;80;21974;-57
2021/12/03 04:47:48;;;;;;;5.08;2.75;;;;;;;0.59;65.27;97132.53;1768088;80;21144;-57
2021/12/03 04:50:14;;;;;;;7.10;2.98;;;;;;;0.59;65.50;97132.53;1756578;81;21513;-57
2021/12/03 04:52:40;;;;;;;5.67;3.17;;;;;;;0.61;65.54;97139.79;1762690;79;21068;-56
2021/12/03 04:55:07;;;;;;;4.12;2.72;;;;;;;0.55;65.98;97139.68;1750369;80;21072;-56
2021/12/03 04:57:33;;;;;;;10.03;5.58;;;;;;;0.51;66.11;97139.88;1777564;79;21555;-57
2021/12/03 04:59:59;;;;;;;10.80;4.12;;;;;;;0.51;66.19;97141.70;1783304;80;21070;-57
2021/12/03 05:02:26;;;;;;;17.07;8.13;;;;;;;0.47;66.28;97145.91;1776303;80;21596;-57
2021/12/03 05:04:54;;;;;;;26.60;11.22;;;;;;;0.44;66.01;97145.86;1756695;80;21007;-57
2021/12/03 05:10:06;;;;;;;4.40;2.00;;;;;;;0.39;66.47;97150.27;1788709;79;22139;-57
2021/12/03 05:12:33;;;;;;;4.30;1.75;;;;;;;0.34;66.39;97149.63;1784212;79;22264;-57
2021/12/03 05:14:59;;;;;;;5.45;1.87;;;;;;;0.28;66.67;97155.40;1783094;80;21012;-57
2021/12/03 05:17:25;;;;;;;5.37;2.27;;;;;;;0.18;67.35;97155.19;1772010;80;21029;-57
2021/12/03 05:19:51;;;;;;;16.57;6.55;;;;;;;0.24;66.91;97155.56;1783256;79;20877;-57
2021/12/03 05:22:17;;;;;;;11.48;5.67;;;;;;;0.28;67.09;97159.39;1783202;79;21463;-57
2021/12/03 05:24:45;;;;;;;14.05;6.70;;;;;;;0.29;66.88;97165.53;1782848;80;21060;-57
2021/12/03 05:27:15;;;;;;;5.30;3.12;;;;;;;0.33;66.97;97178.66;1775480;79;20998;-56
2021/12/03 05:29:42;;;;;;;7.55;2.65;;;;;;;0.33;66.96;97180.00;1783280;80;21115;-57
2021/12/03 05:32:08;;;;;;;6.85;3.10;;;;;;;0.32;66.76;97181.05;1783345;80;20973;-57
2021/12/03 05:34:34;;;;;;;5.78;3.62;;;;;;;0.35;66.66;97191.78;1756611;81;21544;-57
2021/12/03 05:37:00;;;;;;;5.55;2.42;;;;;;;0.38;66.78;97205.44;1769532;80;20870;-57
2021/12/03 05:39:26;;;;;;;5.17;2.20;;;;;;;0.34;66.67;97202.94;1773900;80;21132;-57
2021/12/03 05:41:52;;;;;;;3.25;1.70;;;;;;;0.26;66.53;97208.66;1772943;80;21488;-57
2021/12/03 05:44:18;;;;;;;4.53;1.50;;;;;;;0.17;66.54;97206.02;1780356;79;20862;-57
2021/12/03 05:46:43;;;;;;;5.35;2.60;;;;;;;0.17;66.78;97209.53;1783057;80;21007;-57
2021/12/03 05:49:10;;;;;;;4.92;2.80;;;;;;;0.17;66.96;97206.02;1782824;80;20862;-57
2021/12/03 05:51:37;;;;;;;7.65;3.15;;;;;;;0.22;66.90;97216.28;1783566;80;21037;-57
2021/12/03 05:54:03;;;;;;;8.13;2.58;;;;;;;0.15;66.92;97209.45;1782698;80;21012;-57
2021/12/03 05:56:30;;;;;;;6.03;2.37;;;;;;;0.20;66.94;97218.91;1783101;80;20996;-57
2021/12/03 05:58:56;;;;;;;23.42;4.03;;;;;;;0.22;66.91;97220.80;1782307;80;21452;-57
2021/12/03 06:01:21;;;;;;;6.30;3.40;;;;;;;0.23;66.91;97220.56;1782411;80;21570;-57
2021/12/03 06:03:47;;;;;;;3.72;2.80;;;;;;;0.27;66.71;97220.41;1782947;80;20854;-57
2021/12/03 06:06:14;;;;;;;5.67;2.12;;;;;;;0.26;66.79;97222.78;1783192;80;21505;-57
2021/12/03 06:08:41;;;;;;;3.55;2.00;;;;;;;0.26;66.66;97230.78;1777759;80;22249;-57
2021/12/03 06:11:07;;;;;;;4.70;1.62;;;;;;;0.27;66.66;97234.25;1781665;80;21558;-57
2021/12/03 06:13:38;;;;;;;3.65;1.67;;;;;;;0.27;66.47;97231.59;1782544;80;20865;-57
2021/12/03 06:16:00;;;;;;;17.62;6.62;;;;;;;0.26;66.43;97240.11;1782280;80;21009;-56
2021/12/03 06:18:26;;;;;;;10.23;4.08;;;;;;;0.24;66.30;97242.69;1774429;79;20917;-57
2021/12/03 06:20:52;;;;;;;8.88;3.52;;;;;;;0.23;66.45;97237.89;1783048;80;20882;-57
2021/12/03 06:23:18;;;;;;;8.68;3.65;;;;;;;0.25;66.37;97239.79;1783026;79;21783;-57
2021/12/03 06:25:46;;;;;;;6.90;2.95;;;;;;;0.25;66.48;97249.64;1781072;80;21073;-57
2021/12/03 06:28:12;;;;;;;3.98;2.50;;;;;;;0.27;66.47;97252.91;1782456;79;21031;-57
2021/12/03 06:30:38;;;;;;;7.85;4.12;;;;;;;0.29;66.65;97266.80;1782765;80;20993;-57
2021/12/03 06:33:05;;;;;;;11.12;5.90;;;;;;;0.32;66.38;97269.52;1780367;80;20897;-57
2021/12/03 06:35:31;;;;;;;26.20;11.35;;;;;;;0.31;66.46;97270.56;1783224;80;21164;-57
2021/12/03 06:37:57;;;;;;;37.88;17.17;;;;;;;0.33;66.53;97275.13;1768560;79;21008;-57
2021/12/03 06:40:24;;;;;;;10.00;6.05;;;;;;;0.34;66.58;97284.75;1780480;80;20865;-57
2021/12/03 06:42:50;;;;;;;11.83;6.17;;;;;;;0.39;66.21;97279.55;1782968;80;21005;-57
2021/12/03 06:45:16;;;;;;;8.93;4.72;;;;;;;0.31;66.42;97282.56;1783089;80;20963;-57
2021/12/03 06:47:42;;;;;;;10.70;4.20;;;;;;;0.30;66.47;97291.08;1782686;80;21560;-57
2021/12/03 06:50:10;;;;;;;11.73;5.78;;;;;;;0.34;66.56;97292.74;1783088;80;21640;-57
2021/12/03 06:52:38;;;;;;;9.75;5.03;;;;;;;0.38;66.71;97300.58;1782534;80;21064;-57
2021/12/03 06:55:09;;;;;;;13.38;5.28;;;;;;;0.41;66.73;97303.58;1782916;80;21048;-57
2021/12/03 06:57:33;;;;;;;9.45;4.58;;;;;;;0.47;66.86;97309.33;1782012;79;21122;-57
2021/12/03 06:59:59;;;;;;;18.62;9.18;;;;;;;0.51;66.73;97309.66;1781346;80;21167;-57
2021/12/03 07:02:25;;;;;;;9.35;4.33;;;;;;;0.57;66.71;97316.73;1774482;80;20874;-57
2021/12/03 07:04:51;;;;;;;9.65;6.45;;;;;;;0.60;66.45;97320.29;1779583;80;21437;-57
2021/12/03 07:07:17;;;;;;;11.80;5.50;;;;;;;0.54;66.48;97321.22;1780828;80;20850;-57
2021/12/03 07:09:43;;;;;;;8.70;3.72;;;;;;;0.56;66.49;97323.92;1777885;80;20999;-57
2021/12/03 07:12:10;;;;;;;14.43;5.47;;;;;;;0.57;66.37;97332.73;1778381;80;21411;-57
2021/12/03 07:14:36;;;;;;;7.62;4.10;;;;;;;0.61;66.43;97326.44;1773187;80;21021;-57
2021/12/03 07:17:05;;;;;;;6.15;3.47;;;;;;;0.64;66.36;97335.29;1779272;80;20881;-57
2021/12/03 07:19:30;;;;;;;7.05;3.95;;;;;;;0.62;66.35;97340.86;1776858;80;21535;-57
2021/12/03 07:21:55;;;;;;;14.35;5.33;;;;;;;0.62;66.37;97332.86;1769447;80;21090;-57
2021/12/03 07:24:21;;;;;;;11.33;4.37;;;;;;;0.65;66.52;97335.58;1762686;79;22167;-57
2021/12/03 07:26:47;;;;;;;10.08;4.55;;;;;;;0.70;66.54;97343.70;1784122;80;21017;-57
2021/12/03 07:29:13;;;;;;;8.70;5.22;;;;;;;0.76;66.46;97346.75;1782898;79;21154;-57
2021/12/03 07:31:39;;;;;;;7.87;3.98;;;;;;;0.77;66.35;97344.37;1782178;80;21045;-57
2021/12/03 07:34:05;;;;;;;10.50;4.87;;;;;;;0.81;66.37;97343.69;1782989;80;20890;-57
2021/12/03 07:36:31;;;;;;;8.48;4.30;;;;;;;0.88;66.13;97356.09;1774782;80;21460;-57
2021/12/03 07:38:57;;;;;;;6.72;3.10;;;;;;;0.90;66.22;97356.14;1762150;80;20919;-57
2021/12/03 07:41:23;;;;;;;4.53;2.62;;;;;;;0.95;65.81;97363.45;1775472;80;21626;-56
2021/12/03 07:43:49;;;;;;;17.50;7.40;;;;;;;0.94;65.73;97367.14;1777588;80;21139;-57
2021/12/03 07:46:15;;;;;;;20.43;8.38;;;;;;;0.83;65.02;97373.59;1765644;80;21079;-57
2021/12/03 07:48:46;;;;;;;13.85;5.37;;;;;;;0.89;65.69;97377.19;1779183;80;21531;-57
2021/12/03 07:51:10;;;;;;;8.73;4.33;;;;;;;0.82;65.87;97382.64;1782565;80;21227;-57
2021/12/03 07:53:36;;;;;;;27.20;10.15;;;;;;;0.88;66.18;97386.24;1773924;80;20849;-56
2021/12/03 07:56:03;;;;;;;11.88;6.00;;;;;;;0.91;66.24;97387.10;1783126;80;21313;-57
2021/12/03 07:58:29;;;;;;;9.65;4.30;;;;;;;0.95;66.37;97393.61;1782813;80;21008;-57
2021/12/03 08:00:57;;;;;;;8.53;4.83;;;;;;;0.97;66.40;97403.52;1779516;80;22757;-57
2021/12/03 08:03:23;;;;;;;5.97;3.92;;;;;;;0.94;66.36;97411.16;1782836;80;21371;-57
2021/12/03 08:05:49;;;;;;;25.65;8.65;;;;;;;0.97;66.38;97400.85;1780490;80;20897;-57
2021/12/03 08:08:21;;;;;;;23.35;9.58;;;;;;;1.02;66.27;97407.62;1768207;79;21188;-56
2021/12/03 08:10:43;;;;;;;6.97;4.30;;;;;;;1.00;66.30;97410.23;1770103;80;21103;-57
2021/12/03 08:13:09;;;;;;;8.78;4.12;;;;;;;1.01;66.49;97415.86;1781323;79;21702;-57
2021/12/03 08:15:37;;;;;;;6.97;3.80;;;;;;;1.07;66.42;97414.41;1768238;80;20941;-57
2021/12/03 08:18:04;;;;;;;8.63;4.28;;;;;;;1.09;66.55;97422.17;1761787;79;21016;-57
2021/12/03 08:20:31;;;;;;;10.88;3.98;;;;;;;1.16;66.45;97427.40;1778268;79;21111;-57
2021/12/03 08:22:56;;;;;;;7.15;4.42;;;;;;;1.17;66.72;97427.16;1785095;79;21015;-57
2021/12/03 08:25:23;;;;;;;8.30;3.77;;;;;;;1.26;66.50;97431.63;1786450;79;21878;-57
2021/12/03 08:27:48;;;;;;;29.20;9.83;;;;;;;1.30;66.21;97436.80;1782956;79;20997;-57
2021/12/03 08:30:15;;;;;;;10.13;5.75;;;;;;;1.35;65.95;97446.23;1769180;80;20898;-57
2021/12/03 08:32:42;;;;;;;7.55;3.72;;;;;;;1.32;66.18;97448.85;1769195;79;21514;-57
2021/12/03 08:35:08;;;;;;;10.30;5.25;;;;;;;1.30;66.14;97462.16;1776932;79;21539;-57
2021/12/03 08:37:34;;;;;;;8.85;3.83;;;;;;;1.27;65.92;97464.74;1782734;79;21108;-59
2021/12/03 08:40:00;;;;;;;7.87;4.03;;;;;;;1.24;66.06;97472.42;1772432;80;20950;-59
2021/12/03 08:42:26;;;;;;;8.85;4.42;;;;;;;1.17;65.65;97468.53;1772056;80;20957;-59
2021/12/03 08:44:52;;;;;;;30.10;13.78;;;;;;;1.06;65.02;97477.36;1764609;80;20862;-59
2021/12/03 08:47:19;;;;;;;13.22;6.95;;;;;;;1.04;65.00;97477.59;1781706;80;21105;-59
2021/12/03 08:49:49;;;;;;;10.93;5.20;;;;;;;1.01;65.29;97487.38;1766278;80;21483;-59
2021/12/03 08:54:49;;;;;;;6.65;3.47;;;;;;;0.86;64.87;97489.70;1771930;80;21506;-59
2021/12/03 08:57:17;;;;;;;5.85;3.87;;;;;;;0.86;64.89;97498.23;1737585;82;21019;-59
2021/12/03 08:59:43;;;;;;;5.85;3.98;;;;;;;0.87;64.91;97498.52;1741341;82;21083;-59
2021/12/03 09:02:09;;;;;;;56.05;20.32;;;;;;;0.78;64.38;97506.05;1736087;82;21120;-59
2021/12/03 09:04:37;;;;;;;10.60;5.85;;;;;;;1.00;64.89;97494.28;1747909;82;21018;-59
2021/12/03 09:07:04;;;;;;;8.45;5.35;;;;;;;1.13;65.17;97500.74;1745280;82;21391;-59
2021/12/03 09:09:30;;;;;;;16.27;7.17;;;;;;;1.27;65.08;97498.64;1750109;81;21511;-59
2021/12/03 09:11:56;;;;;;;27.17;13.15;;;;;;;1.40;65.29;97506.42;1751097;81;20902;-58
2021/12/03 09:16:55;;;;;;;25.25;11.65;;;;;;;1.60;64.58;97507.38;1716676;82;20942;-59
2021/12/03 09:19:25;;;;;;;16.93;9.30;;;;;;;1.72;64.12;97514.86;1725280;82;22198;-59
2021/12/03 09:21:47;;;;;;;12.07;6.20;;;;;;;1.60;62.42;97513.53;1721945;82;21087;-59
2021/12/03 09:24:16;;;;;;;16.77;8.25;;;;;;;1.74;64.15;97520.78;1729054;81;21134;-57
2021/12/03 09:26:42;;;;;;;37.85;14.98;;;;;;;1.81;62.19;97520.66;1728085;82;21522;-57
2021/12/03 09:29:11;;;;;;;58.08;18.12;;;;;;;1.91;63.51;97527.54;1731641;82;21064;-57
2021/12/03 09:31:37;;;;;;;33.77;13.87;;;;;;;2.04;63.98;97525.92;1723170;82;21475;-57
2021/12/03 09:34:15;;;;;;;41.35;13.65;;;;;;;2.11;63.20;97531.95;1744693;82;21012;-57
2021/12/03 09:36:40;;;;;;;23.07;10.18;;;;;;;2.02;62.12;97536.05;1703945;83;21015;-57
2021/12/03 09:39:06;;;;;;;13.70;6.65;;;;;;;2.04;62.88;97541.15;1714856;82;21301;-57
2021/12/03 09:41:32;;;;;;;10.68;5.67;;;;;;;1.98;62.21;97536.24;1709286;82;21041;-57
2021/12/03 09:43:58;;;;;;;8.90;4.90;;;;;;;1.95;61.66;97543.38;1727111;81;20868;-57
2021/12/03 09:46:27;;;;;;;10.00;5.70;;;;;;;2.00;61.38;97544.02;1716496;83;20950;-57
2021/12/03 09:51:37;;;;;;;8.85;4.53;;;;;;;1.94;60.43;97539.89;1715381;82;21660;-57
2021/12/03 09:56:44;;;;;;;6.83;4.58;;;;;;;1.80;60.88;97539.88;1746599;80;21061;-57
2021/12/03 10:02:12;;;;;;;9.90;5.75;;;;;;;1.88;60.63;97532.84;1746311;82;21052;-57
2021/12/03 10:04:42;;;;;;;11.43;6.40;;;;;;;1.89;60.31;97529.64;1724766;82;21396;-57
2021/12/03 10:15:23;;;;;;;7.20;4.37;;;;;;;1.65;61.27;97518.99;1744801;82;21543;-57
2021/12/03 10:20:54;;;;;;;11.80;5.67;;;;;;;1.36;60.69;97534.09;1734827;82;21081;-57
2021/12/03 10:45:26;;;;;;;11.43;6.62;;;;;;;1.08;61.68;97522.77;1716886;82;21158;-57
2021/12/03 10:48:11;;;;;;;8.95;5.17;;;;;;;1.10;61.70;97508.67;1704713;82;21057;-57
2021/12/03 10:50:43;;;;;;;11.55;5.92;;;;;;;1.10;61.37;97503.86;1725240;82;21053;-56
2021/12/03 11:04:34;;;;;;;11.08;5.37;;;;;;;1.31;61.43;97514.49;1729411;81;21040;-57
2021/12/03 11:30:33;;;;;;;24.05;10.50;;;;;;;1.61;59.57;97511.14;1690906;82;21083;-57
2021/12/03 11:41:59;;;;;;;21.77;8.95;;;;;;;1.72;58.46;97508.19;1723297;82;21052;-56
2021/12/03 11:44:42;;;;;;;7.80;4.00;;;;;;;1.75;58.69;97513.05;1722088;81;21269;-56
2021/12/03 11:50:06;;;;;;;6.80;3.10;;;;;;;1.71;57.73;97521.26;1731545;81;21554;-56
2021/12/03 12:27:15;;;;;;;9.05;4.05;;;;;;;2.06;56.61;97515.83;1724213;82;21570;-57
2021/12/03 13:22:13;;;;;;;125.33;46.88;;;;;;;1.88;53.75;97538.19;1734169;82;20993;-57
2021/12/03 13:26:57;;;;;;;87.35;26.00;;;;;;;1.84;54.70;97542.36;1727983;82;21001;-57
2021/12/03 14:09:55;;;;;;;91.87;39.20;;;;;;;1.33;54.41;97597.83;1727428;82;20999;-57
2021/12/03 14:33:01;;;;;;;269.87;111.10;;;;;;;0.95;55.57;97608.91;1726586;82;21025;-57
2021/12/03 14:35:17;;;;;;;191.70;83.78;;;;;;;0.89;55.92;97616.48;1730127;82;21558;-57
2021/12/03 14:39:50;;;;;;;72.90;33.42;;;;;;;0.77;55.96;97609.75;1700183;82;21060;-56
2021/12/03 14:44:39;;;;;;;90.75;35.60;;;;;;;0.65;55.41;97605.72;1724469;82;20978;-56
2021/12/03 14:47:30;;;;;;;67.82;28.85;;;;;;;0.59;55.76;97609.80;1718930;82;22625;-56
2021/12/03 14:54:58;;;;;;;65.90;30.97;;;;;;;0.35;56.48;97623.56;1665040;85;21539;-56
2021/12/03 14:57:48;;;;;;;81.97;30.45;;;;;;;0.27;56.82;97626.02;1684970;83;21115;-56
2021/12/03 15:00:22;;;;;;;98.20;42.83;;;;;;;0.19;57.07;97619.65;1695402;84;21029;-56
2021/12/03 15:03:26;;;;;;;143.70;61.83;;;;;;;0.12;57.15;97619.72;1724263;82;21830;-56
2021/12/03 15:06:06;;;;;;;385.32;164.75;;;;;;;0.06;57.25;97629.92;1709896;82;21017;-56
2021/12/03 15:08:39;;;;;;;247.40;109.87;;;;;;;0.01;57.37;97623.13;1724964;82;21526;-57
2021/12/03 15:19:38;;;;;;;250.30;103.78;;;;;;;-0.21;58.42;97646.70;1724103;82;21468;-57
2021/12/03 15:30:04;;;;;;;211.40;87.70;;;;;;;-0.42;58.97;97653.26;1742778;80;21752;-56
2021/12/03 15:32:26;;;;;;;195.07;84.03;;;;;;;-0.50;60.36;97662.03;1771736;80;20992;-57
2021/12/03 16:03:29;;;;;;;154.15;63.08;;;;;;;-1.17;61.70;97660.34;1777962;79;21004;-57
2021/12/03 16:03:54;;;;;;;210.90;92.00;;;;;;;-1.21;61.76;97671.09;1754906;79;20950;-57
2021/12/03 16:06:28;;;;;;;181.90;86.15;;;;;;;-1.28;63.97;97674.30;1760872;80;21009;-57
2021/12/03 16:08:51;;;;;;;158.37;75.55;;;;;;;-1.37;62.76;97671.06;1777877;79;21707;-57
2021/12/03 16:14:37;;;;;;;157.55;62.53;;;;;;;-1.58;63.58;97673.52;1783074;79;21573;-57
2021/12/03 16:17:02;;;;;;;159.18;64.50;;;;;;;-1.69;62.90;97672.86;1781918;80;21113;-57
2021/12/03 16:19:32;;;;;;;195.53;77.25;;;;;;;-1.82;63.87;97668.39;1781776;79;21052;-57
2021/12/03 16:22:07;;;;;;;244.40;85.75;;;;;;;-1.81;63.28;97670.53;1782260;80;21112;-57
2021/12/03 16:27:55;;;;;;;280.65;112.03;;;;;;;-1.85;63.45;97664.02;1783318;80;20993;-57
2021/12/03 16:46:04;;;;;;;376.45;149.55;;;;;;;-2.03;63.93;97692.05;1778229;80;20972;-57
2021/12/03 16:53:28;;;;;;;431.93;164.75;;;;;;;-2.08;65.48;97703.80;1773800;80;21340;-57
2021/12/03 16:56:00;;;;;;;444.88;175.53;;;;;;;-2.09;65.42;97704.00;1778639;80;21060;-57
2021/12/03 16:58:22;;;;;;;722.20;299.55;;;;;;;-2.18;66.08;97714.53;1768092;80;21566;-57
2021/12/03 17:00:57;;;;;;;354.90;146.90;;;;;;;-2.28;66.37;97707.80;1775552;80;21515;-57
2021/12/03 17:03:24;;;;;;;326.12;135.82;;;;;;;-2.33;66.19;97708.92;1782122;79;20992;-57